Time;durP1;ratioP1;P1;durP2;ratioP2;P2;SDS_P1;SDS_P2;PMS_P1;PMS_P2;Temp;Humidity;BMP_temperature;BMP_pressure;BME280_temperature;BME280_humidity;BME280_pressure;Samples;Min_cycle;Max_cycle;Signal;HPM_P1;HPM_P2
2022/01/16 00:00:20;;;;;;;65.00;25.20;;;;;;;;;;5138513;28;20685;-70
2022/01/16 00:05:34;;;;;;;60.37;25.80;;;;;;;;;;5138209;28;20434;-70
2022/01/16 00:08:02;;;;;;;52.97;24.63;;;;;;;;;;5138627;28;20777;-70
2022/01/16 00:10:30;;;;;;;56.33;24.27;;;;;;;;;;5138300;28;20674;-70
2022/01/16 00:13:00;;;;;;;58.00;24.20;;;;;;;;;;5138372;28;20208;-70
2022/01/16 00:15:28;;;;;;;58.42;24.83;;;;;;;;;;5138680;28;20214;-70
2022/01/16 00:18:07;;;;;;;49.50;23.50;;;;;;;;;;5138490;28;20208;-70
2022/01/16 00:20:35;;;;;;;56.28;23.15;;;;;;;;;;5134059;28;20207;-70
2022/01/16 00:23:05;;;;;;;58.28;24.13;;;;;;;;;;5138358;28;20214;-70
2022/01/16 00:25:35;;;;;;;48.28;22.95;;;;;;;;;;5138242;28;20655;-70
2022/01/16 00:28:05;;;;;;;53.35;21.67;;;;;;;;;;5138275;28;20223;-70
2022/01/16 00:30:33;;;;;;;48.28;19.92;;;;;;;;;;5139781;27;20204;-70
2022/01/16 00:33:01;;;;;;;50.50;21.33;;;;;;;;;;5142463;27;20222;-70
2022/01/16 00:35:29;;;;;;;52.50;23.98;;;;;;;;;;5142251;27;20203;-70
2022/01/16 00:37:57;;;;;;;52.00;22.15;;;;;;;;;;5142292;27;20199;-70
2022/01/16 00:40:25;;;;;;;54.53;21.67;;;;;;;;;;5142095;27;20231;-70
2022/01/16 00:42:55;;;;;;;45.40;20.08;;;;;;;;;;5142404;27;20205;-70
2022/01/16 00:45:24;;;;;;;45.45;22.98;;;;;;;;;;5142199;27;20203;-70
2022/01/16 00:47:52;;;;;;;51.55;20.02;;;;;;;;;;5141912;27;20219;-70
2022/01/16 00:50:20;;;;;;;47.38;21.60;;;;;;;;;;5141619;27;20235;-70
2022/01/16 00:52:48;;;;;;;44.20;20.50;;;;;;;;;;5142246;27;20200;-70
2022/01/16 00:55:16;;;;;;;46.60;19.98;;;;;;;;;;5142123;27;20199;-70
2022/01/16 00:57:44;;;;;;;43.30;20.15;;;;;;;;;;5141932;27;20216;-70
2022/01/16 01:00:12;;;;;;;44.08;19.45;;;;;;;;;;5141970;27;20224;-70
2022/01/16 01:02:42;;;;;;;42.88;17.92;;;;;;;;;;5141527;27;20568;-70
2022/01/16 01:05:10;;;;;;;41.83;19.83;;;;;;;;;;5141367;27;20210;-70
2022/01/16 01:07:39;;;;;;;57.10;20.13;;;;;;;;;;5141976;27;20227;-70
2022/01/16 01:10:30;;;;;;;45.70;21.10;;;;;;;;;;5142098;27;20196;-70
2022/01/16 01:13:08;;;;;;;37.88;18.42;;;;;;;;;;5141887;27;20446;-70
2022/01/16 01:15:42;;;;;;;40.42;19.00;;;;;;;;;;5141375;27;20286;-70
2022/01/16 01:18:12;;;;;;;36.35;19.95;;;;;;;;;;5141628;27;20643;-70
2022/01/16 01:20:41;;;;;;;34.00;18.95;;;;;;;;;;5141237;27;20228;-70
2022/01/16 01:23:10;;;;;;;42.55;19.13;;;;;;;;;;5141483;27;20208;-70
2022/01/16 01:25:38;;;;;;;44.03;19.70;;;;;;;;;;5141253;27;20208;-70
2022/01/16 01:28:07;;;;;;;36.92;17.88;;;;;;;;;;5141558;27;20663;-70
2022/01/16 01:30:35;;;;;;;41.90;20.10;;;;;;;;;;5141082;27;20218;-70
2022/01/16 01:33:03;;;;;;;44.13;20.00;;;;;;;;;;5141088;27;20671;-70
2022/01/16 01:35:38;;;;;;;36.20;17.85;;;;;;;;;;5140749;27;20446;-70
2022/01/16 01:38:07;;;;;;;40.93;19.23;;;;;;;;;;5141109;27;20611;-71
2022/01/16 01:40:35;;;;;;;41.23;19.77;;;;;;;;;;5141233;27;20481;-70
2022/01/16 01:51:01;;;;;;;41.58;19.83;;;;;;;;;;5140270;27;20451;-70
2022/01/16 01:51:23;;;;;;;43.85;20.38;;;;;;;;;;5106548;27;20207;-70
2022/01/16 01:53:54;;;;;;;53.75;20.05;;;;;;;;;;5140959;27;20236;-70
2022/01/16 01:56:23;;;;;;;43.40;19.13;;;;;;;;;;5140736;27;20216;-70
2022/01/16 01:58:51;;;;;;;40.95;18.92;;;;;;;;;;5140911;27;20208;-70
2022/01/16 02:01:19;;;;;;;40.55;18.27;;;;;;;;;;5140635;27;20222;-70
2022/01/16 02:03:48;;;;;;;40.27;17.73;;;;;;;;;;5140759;27;20208;-70
2022/01/16 02:06:17;;;;;;;37.07;18.10;;;;;;;;;;5140385;27;20465;-70
2022/01/16 02:08:48;;;;;;;41.83;17.97;;;;;;;;;;5140670;27;20940;-70
2022/01/16 02:11:16;;;;;;;42.50;18.37;;;;;;;;;;5127308;27;20441;-70
2022/01/16 02:13:51;;;;;;;39.50;19.87;;;;;;;;;;5140711;27;20529;-70
2022/01/16 02:31:01;;;;;;;50.00;20.37;;;;;;;;;;5076647;28;20536;-70
2022/01/16 02:36:28;;;;;;;48.90;20.57;;;;;;;;;;5093433;27;20466;-70
2022/01/16 02:39:02;;;;;;;43.70;20.07;;;;;;;;;;5139989;27;20807;-70
2022/01/16 02:41:30;;;;;;;42.00;20.27;;;;;;;;;;5139934;27;20477;-70
2022/01/16 02:43:58;;;;;;;46.63;19.70;;;;;;;;;;5140106;27;20445;-70
2022/01/16 02:46:39;;;;;;;49.57;21.27;;;;;;;;;;5139836;27;20465;-69
2022/01/16 02:49:18;;;;;;;56.15;20.92;;;;;;;;;;5139892;27;20538;-70
2022/01/16 02:51:46;;;;;;;44.83;19.98;;;;;;;;;;5139752;27;20613;-70
2022/01/16 02:54:16;;;;;;;34.13;17.60;;;;;;;;;;5139983;27;20204;-70
2022/01/16 02:56:45;;;;;;;43.53;19.33;;;;;;;;;;5139221;27;20912;-70
2022/01/16 02:59:13;;;;;;;36.00;18.03;;;;;;;;;;5139545;27;20458;-70
2022/01/16 03:01:42;;;;;;;42.80;20.00;;;;;;;;;;5139527;27;20534;-70
2022/01/16 03:04:10;;;;;;;36.23;19.27;;;;;;;;;;5139481;27;20449;-70
2022/01/16 03:06:38;;;;;;;43.80;21.53;;;;;;;;;;5139171;27;20465;-70
2022/01/16 03:09:07;;;;;;;42.80;19.83;;;;;;;;;;5139524;27;20450;-70
2022/01/16 03:11:39;;;;;;;39.23;19.30;;;;;;;;;;5139053;27;20894;-70
2022/01/16 03:14:09;;;;;;;36.60;17.90;;;;;;;;;;5139386;27;20442;-73
2022/01/16 03:16:40;;;;;;;47.37;19.40;;;;;;;;;;5139502;27;20466;-73
2022/01/16 03:21:55;;;;;;;36.03;17.53;;;;;;;;;;5139145;27;20474;-73
2022/01/16 03:24:24;;;;;;;39.60;17.43;;;;;;;;;;5139188;27;20438;-73
2022/01/16 03:26:55;;;;;;;42.33;19.40;;;;;;;;;;5139193;27;20476;-73
2022/01/16 03:29:23;;;;;;;40.90;19.60;;;;;;;;;;5139046;27;20472;-73
2022/01/16 03:31:51;;;;;;;38.17;16.63;;;;;;;;;;5139183;27;20442;-73
2022/01/16 03:34:20;;;;;;;42.07;19.23;;;;;;;;;;5138750;27;20493;-73
2022/01/16 03:36:48;;;;;;;44.33;19.67;;;;;;;;;;5138558;27;20466;-71
2022/01/16 03:39:16;;;;;;;40.23;18.07;;;;;;;;;;5139025;27;20448;-73
2022/01/16 03:41:45;;;;;;;38.00;17.23;;;;;;;;;;5138974;27;20564;-73
2022/01/16 03:44:14;;;;;;;36.53;17.80;;;;;;;;;;5138752;27;20449;-72
2022/01/16 03:46:43;;;;;;;37.13;15.10;;;;;;;;;;5138665;27;20876;-74
2022/01/16 03:49:12;;;;;;;39.80;19.07;;;;;;;;;;5138508;27;20848;-73
2022/01/16 03:51:41;;;;;;;40.80;17.73;;;;;;;;;;5138447;27;20446;-73
2022/01/16 03:54:10;;;;;;;38.53;17.40;;;;;;;;;;5139034;27;20441;-73
2022/01/16 03:56:38;;;;;;;37.53;17.77;;;;;;;;;;5138738;27;20462;-71
2022/01/16 03:59:07;;;;;;;39.42;19.10;;;;;;;;;;5138655;27;20235;-70
2022/01/16 04:01:36;;;;;;;37.33;17.43;;;;;;;;;;5136278;27;20212;-70
2022/01/16 04:04:04;;;;;;;40.17;20.23;;;;;;;;;;5137569;27;20517;-71
2022/01/16 04:06:33;;;;;;;40.20;20.20;;;;;;;;;;5139311;27;20460;-71
2022/01/16 04:09:02;;;;;;;39.30;18.43;;;;;;;;;;5147066;27;21043;-70
2022/01/16 04:11:31;;;;;;;37.72;16.60;;;;;;;;;;5143949;27;20925;-71
2022/01/16 04:14:06;;;;;;;40.13;19.13;;;;;;;;;;5145093;27;20196;-71
2022/01/16 04:16:34;;;;;;;35.60;18.25;;;;;;;;;;5145780;27;20222;-70
2022/01/16 04:19:03;;;;;;;36.35;18.00;;;;;;;;;;5143764;27;20200;-70
2022/01/16 04:21:31;;;;;;;45.92;18.80;;;;;;;;;;5143696;27;20224;-71
2022/01/16 04:23:59;;;;;;;39.45;17.90;;;;;;;;;;5144330;27;20611;-70
2022/01/16 04:26:28;;;;;;;46.42;16.80;;;;;;;;;;5145100;27;20220;-70
2022/01/16 04:28:56;;;;;;;44.10;19.33;;;;;;;;;;5142432;27;20200;-71
2022/01/16 04:31:24;;;;;;;38.08;17.38;;;;;;;;;;5144918;27;20234;-70
2022/01/16 04:33:52;;;;;;;38.40;18.15;;;;;;;;;;5144864;27;20203;-71
2022/01/16 04:36:22;;;;;;;37.17;17.08;;;;;;;;;;5145020;27;20228;-71
2022/01/16 04:38:52;;;;;;;37.80;17.67;;;;;;;;;;5144925;27;20684;-71
2022/01/16 04:44:06;;;;;;;35.00;16.43;;;;;;;;;;5145065;27;20815;-71
2022/01/16 04:46:34;;;;;;;44.35;18.67;;;;;;;;;;5144865;27;20461;-71
2022/01/16 04:49:03;;;;;;;31.55;16.45;;;;;;;;;;5144737;27;20599;-70
2022/01/16 04:51:33;;;;;;;39.58;17.80;;;;;;;;;;5144866;27;20204;-71
2022/01/16 04:54:01;;;;;;;51.85;18.08;;;;;;;;;;5145235;27;20208;-70
2022/01/16 04:56:29;;;;;;;49.47;18.13;;;;;;;;;;5144900;27;20216;-70
2022/01/16 04:58:57;;;;;;;40.72;16.73;;;;;;;;;;5145145;27;20208;-70
2022/01/16 05:01:27;;;;;;;41.60;16.67;;;;;;;;;;5144631;27;20274;-71
2022/01/16 05:03:55;;;;;;;42.53;18.10;;;;;;;;;;5145085;27;20264;-70
2022/01/16 05:06:23;;;;;;;34.63;17.50;;;;;;;;;;5130990;27;20230;-70
2022/01/16 05:08:52;;;;;;;40.17;15.88;;;;;;;;;;5144913;27;20200;-70
2022/01/16 05:11:25;;;;;;;34.08;17.75;;;;;;;;;;5144818;27;20214;-71
2022/01/16 05:16:40;;;;;;;37.83;17.25;;;;;;;;;;5142608;27;20228;-71
2022/01/16 05:19:09;;;;;;;39.30;15.60;;;;;;;;;;5141479;27;20208;-70
2022/01/16 05:21:38;;;;;;;29.75;16.55;;;;;;;;;;5141396;27;20701;-70
2022/01/16 05:24:10;;;;;;;45.45;16.92;;;;;;;;;;5141403;27;20196;-70
2022/01/16 05:26:38;;;;;;;36.55;17.25;;;;;;;;;;5141311;27;20778;-71
2022/01/16 05:29:06;;;;;;;33.10;17.05;;;;;;;;;;5141121;27;20196;-71
2022/01/16 05:31:34;;;;;;;37.03;16.05;;;;;;;;;;5141191;27;20218;-71
2022/01/16 05:34:02;;;;;;;34.10;16.70;;;;;;;;;;5141096;27;20208;-70
2022/01/16 05:36:30;;;;;;;37.38;15.80;;;;;;;;;;5141187;27;20230;-71
2022/01/16 05:38:58;;;;;;;34.00;17.15;;;;;;;;;;5141287;27;20287;-71
2022/01/16 05:41:28;;;;;;;36.97;17.38;;;;;;;;;;5141049;27;20312;-70
2022/01/16 05:43:56;;;;;;;31.48;15.38;;;;;;;;;;5141365;27;20208;-71
2022/01/16 05:46:24;;;;;;;29.67;14.10;;;;;;;;;;5141198;27;20225;-71
2022/01/16 05:48:52;;;;;;;29.27;16.20;;;;;;;;;;5140902;27;20240;-71
2022/01/16 05:51:20;;;;;;;32.67;16.20;;;;;;;;;;5140773;27;20205;-70
2022/01/16 05:53:50;;;;;;;30.73;14.77;;;;;;;;;;5140792;27;20499;-71
2022/01/16 05:56:18;;;;;;;30.38;14.23;;;;;;;;;;5140838;27;20228;-71
2022/01/16 05:58:48;;;;;;;37.20;15.82;;;;;;;;;;5140717;27;20253;-71
2022/01/16 06:01:16;;;;;;;24.33;14.10;;;;;;;;;;5140837;27;20204;-71
2022/01/16 06:03:44;;;;;;;29.33;13.93;;;;;;;;;;5138777;27;20264;-71
2022/01/16 06:06:12;;;;;;;33.67;15.30;;;;;;;;;;5141120;27;20461;-71
2022/01/16 06:08:40;;;;;;;29.77;14.70;;;;;;;;;;5140065;27;20438;-71
2022/01/16 06:11:08;;;;;;;31.77;15.73;;;;;;;;;;5137375;27;20453;-71
2022/01/16 06:13:36;;;;;;;33.17;16.00;;;;;;;;;;5138722;27;20436;-70
2022/01/16 06:16:05;;;;;;;40.77;17.33;;;;;;;;;;5139663;27;20488;-71
2022/01/16 06:18:33;;;;;;;34.75;16.05;;;;;;;;;;5138987;27;20437;-71
2022/01/16 06:21:01;;;;;;;27.60;16.75;;;;;;;;;;5139306;27;20200;-71
2022/01/16 06:23:29;;;;;;;34.80;16.42;;;;;;;;;;5138474;27;20215;-70
2022/01/16 06:25:57;;;;;;;26.40;14.82;;;;;;;;;;5140779;27;20216;-70
2022/01/16 06:28:27;;;;;;;30.77;15.70;;;;;;;;;;5135570;27;20196;-70
2022/01/16 06:30:55;;;;;;;34.67;15.40;;;;;;;;;;5139326;27;20211;-70
2022/01/16 06:33:25;;;;;;;29.10;13.60;;;;;;;;;;5140234;27;20221;-70
2022/01/16 06:35:53;;;;;;;31.77;15.02;;;;;;;;;;5138152;27;20212;-70
2022/01/16 06:38:20;;;;;;;29.48;14.60;;;;;;;;;;5139886;27;20203;-70
2022/01/16 06:40:48;;;;;;;29.52;13.57;;;;;;;;;;5141545;27;20211;-70
2022/01/16 06:43:16;;;;;;;32.00;15.00;;;;;;;;;;5139225;27;20216;-73
2022/01/16 06:45:44;;;;;;;33.38;14.98;;;;;;;;;;5139843;27;20223;-73
2022/01/16 06:48:13;;;;;;;31.42;15.02;;;;;;;;;;5143196;27;20198;-74
2022/01/16 06:50:42;;;;;;;33.97;15.63;;;;;;;;;;5140952;27;20201;-73
2022/01/16 06:53:10;;;;;;;34.80;15.60;;;;;;;;;;5137966;27;20202;-72
2022/01/16 06:55:38;;;;;;;32.58;15.27;;;;;;;;;;5139312;27;20578;-72
2022/01/16 06:58:12;;;;;;;35.55;14.32;;;;;;;;;;5139885;27;20207;-72
2022/01/16 07:00:40;;;;;;;28.70;12.82;;;;;;;;;;5139735;27;20206;-73
2022/01/16 07:03:08;;;;;;;30.35;15.57;;;;;;;;;;5139443;27;20224;-72
2022/01/16 07:05:36;;;;;;;37.47;17.10;;;;;;;;;;5139255;27;20204;-73
2022/01/16 07:08:05;;;;;;;39.13;16.15;;;;;;;;;;5139721;27;20212;-73
2022/01/16 07:10:33;;;;;;;31.85;15.80;;;;;;;;;;5139156;27;20208;-73
2022/01/16 07:13:01;;;;;;;30.13;16.42;;;;;;;;;;5139568;27;20206;-72
2022/01/16 07:15:29;;;;;;;31.37;14.60;;;;;;;;;;5139215;27;20210;-73
2022/01/16 07:17:57;;;;;;;29.48;12.88;;;;;;;;;;5138995;27;20449;-73
2022/01/16 07:20:25;;;;;;;27.00;14.43;;;;;;;;;;5139001;27;20200;-73
2022/01/16 07:22:53;;;;;;;31.08;16.05;;;;;;;;;;5139260;27;20488;-73
2022/01/16 07:25:23;;;;;;;26.35;15.05;;;;;;;;;;5139319;27;20204;-74
2022/01/16 07:27:51;;;;;;;34.40;16.30;;;;;;;;;;5139118;27;20230;-73
2022/01/16 07:30:19;;;;;;;31.83;14.70;;;;;;;;;;5138764;27;20811;-73
2022/01/16 07:32:47;;;;;;;37.30;15.60;;;;;;;;;;5138733;27;20805;-73
2022/01/16 07:35:15;;;;;;;34.13;15.87;;;;;;;;;;5138626;27;20812;-73
2022/01/16 07:38:03;;;;;;;36.07;16.37;;;;;;;;;;5136294;27;20443;-72
2022/01/16 07:40:34;;;;;;;30.70;15.47;;;;;;;;;;5137961;27;20434;-74
2022/01/16 07:43:02;;;;;;;35.53;16.30;;;;;;;;;;5138657;27;20487;-72
2022/01/16 07:45:30;;;;;;;33.97;16.37;;;;;;;;;;5138701;27;20204;-72
2022/01/16 07:47:58;;;;;;;29.50;14.38;;;;;;;;;;5138645;27;20449;-72
2022/01/16 07:50:26;;;;;;;37.72;16.77;;;;;;;;;;5137890;27;20319;-72
2022/01/16 07:52:54;;;;;;;36.63;17.98;;;;;;;;;;5138104;27;20202;-72
2022/01/16 07:55:25;;;;;;;30.55;16.17;;;;;;;;;;5141754;27;20204;-71
2022/01/16 07:57:55;;;;;;;32.53;14.93;;;;;;;;;;5136522;27;20694;-71
2022/01/16 08:00:31;;;;;;;33.15;15.00;;;;;;;;;;5137745;27;20231;-72
2022/01/16 08:03:00;;;;;;;40.10;17.27;;;;;;;;;;5138187;27;20224;-71
2022/01/16 08:05:28;;;;;;;35.38;14.63;;;;;;;;;;5137910;28;20211;-71
2022/01/16 08:07:56;;;;;;;40.70;16.38;;;;;;;;;;5138340;28;20215;-71
2022/01/16 08:10:24;;;;;;;37.90;16.58;;;;;;;;;;5138240;28;20638;-70
2022/01/16 08:12:52;;;;;;;37.85;17.23;;;;;;;;;;5145138;27;20196;-71
2022/01/16 08:15:21;;;;;;;35.33;15.50;;;;;;;;;;5159080;27;20207;-70
2022/01/16 08:17:49;;;;;;;39.80;15.30;;;;;;;;;;5155963;27;20228;-71
2022/01/16 08:20:17;;;;;;;42.90;17.02;;;;;;;;;;5129041;28;20264;-71
2022/01/16 08:22:45;;;;;;;36.22;16.42;;;;;;;;;;5138223;28;20228;-70
2022/01/16 08:25:14;;;;;;;38.70;18.42;;;;;;;;;;5136548;28;20888;-71
2022/01/16 08:27:42;;;;;;;32.90;16.58;;;;;;;;;;5137368;28;20220;-71
2022/01/16 08:30:10;;;;;;;37.88;17.42;;;;;;;;;;5148833;27;20225;-71
2022/01/16 08:32:42;;;;;;;37.40;17.95;;;;;;;;;;5153601;27;20542;-70
2022/01/16 08:35:10;;;;;;;38.42;17.13;;;;;;;;;;5138032;28;20204;-71
2022/01/16 08:37:38;;;;;;;32.83;16.70;;;;;;;;;;5142953;27;20282;-70
2022/01/16 08:40:07;;;;;;;34.40;16.33;;;;;;;;;;5140992;27;20208;-71
2022/01/16 08:42:37;;;;;;;39.22;17.67;;;;;;;;;;5137699;28;20685;-71
2022/01/16 08:45:05;;;;;;;34.22;16.70;;;;;;;;;;5137812;28;20299;-70
2022/01/16 08:47:33;;;;;;;36.10;15.57;;;;;;;;;;5137891;28;20226;-71
2022/01/16 08:50:04;;;;;;;30.38;16.30;;;;;;;;;;5137348;28;20236;-71
2022/01/16 08:52:32;;;;;;;39.55;17.23;;;;;;;;;;5141038;27;20239;-70
2022/01/16 08:55:01;;;;;;;44.60;17.63;;;;;;;;;;5142163;27;20212;-72
2022/01/16 08:57:29;;;;;;;32.42;15.50;;;;;;;;;;5144920;27;20751;-71
2022/01/16 08:59:57;;;;;;;41.25;17.85;;;;;;;;;;5141673;27;20659;-70
2022/01/16 09:02:25;;;;;;;33.42;15.98;;;;;;;;;;5143573;27;20203;-69
2022/01/16 09:04:53;;;;;;;31.00;15.70;;;;;;;;;;5149264;27;20316;-70
2022/01/16 09:07:23;;;;;;;32.10;17.20;;;;;;;;;;5149710;27;20215;-70
2022/01/16 09:09:51;;;;;;;38.30;17.77;;;;;;;;;;5149702;27;20196;-72
2022/01/16 09:12:19;;;;;;;36.53;18.13;;;;;;;;;;5147149;27;20203;-70
2022/01/16 09:14:47;;;;;;;41.00;19.00;;;;;;;;;;5149302;27;20192;-71
2022/01/16 09:17:15;;;;;;;35.72;18.17;;;;;;;;;;5149465;27;20219;-72
2022/01/16 09:19:43;;;;;;;45.40;19.08;;;;;;;;;;5149146;27;20235;-73
2022/01/16 09:22:12;;;;;;;37.00;17.00;;;;;;;;;;5141147;27;20200;-70
2022/01/16 09:24:41;;;;;;;40.08;18.35;;;;;;;;;;5140830;27;20660;-72
2022/01/16 09:27:09;;;;;;;30.13;16.80;;;;;;;;;;5141026;27;20707;-72
2022/01/16 09:29:37;;;;;;;33.63;19.00;;;;;;;;;;5143445;27;20200;-71
2022/01/16 09:32:06;;;;;;;34.97;15.23;;;;;;;;;;5161308;27;20716;-71
2022/01/16 09:34:34;;;;;;;33.90;16.05;;;;;;;;;;5140801;27;20211;-71
2022/01/16 09:37:08;;;;;;;30.92;16.25;;;;;;;;;;5141007;27;20224;-73
2022/01/16 09:39:36;;;;;;;33.45;19.38;;;;;;;;;;5139707;27;20290;-72
2022/01/16 09:42:06;;;;;;;35.65;16.55;;;;;;;;;;5138456;27;20200;-72
2022/01/16 09:44:35;;;;;;;37.65;18.88;;;;;;;;;;5140527;27;20699;-72
2022/01/16 09:47:03;;;;;;;37.72;18.27;;;;;;;;;;5140619;27;20230;-72
2022/01/16 09:49:44;;;;;;;38.03;17.30;;;;;;;;;;5140300;27;20239;-71
2022/01/16 09:52:13;;;;;;;30.98;15.50;;;;;;;;;;5141973;27;20243;-71
2022/01/16 09:54:41;;;;;;;33.03;14.90;;;;;;;;;;5145173;27;20570;-72
2022/01/16 09:57:11;;;;;;;36.10;18.23;;;;;;;;;;5139976;27;20589;-74
2022/01/16 09:59:39;;;;;;;37.50;18.05;;;;;;;;;;5142430;27;20259;-74
2022/01/16 10:02:07;;;;;;;35.50;17.52;;;;;;;;;;5141253;27;20196;-74
2022/01/16 10:04:36;;;;;;;37.20;17.33;;;;;;;;;;5139236;27;20228;-73
2022/01/16 10:07:06;;;;;;;32.97;16.42;;;;;;;;;;5143120;27;20713;-75
2022/01/16 10:09:35;;;;;;;38.65;16.25;;;;;;;;;;5146635;27;20196;-75
2022/01/16 10:12:13;;;;;;;32.25;17.00;;;;;;;;;;5144692;27;20247;-73
2022/01/16 10:14:49;;;;;;;37.63;15.88;;;;;;;;;;5146303;27;20280;-74
2022/01/16 10:17:19;;;;;;;37.47;18.35;;;;;;;;;;5148822;27;20216;-71
2022/01/16 10:19:57;;;;;;;30.98;16.52;;;;;;;;;;5142381;27;20275;-71
2022/01/16 10:22:37;;;;;;;39.60;17.63;;;;;;;;;;5138625;27;20267;-71
2022/01/16 10:25:06;;;;;;;35.78;17.27;;;;;;;;;;5140153;27;20234;-71
2022/01/16 10:27:34;;;;;;;33.47;18.67;;;;;;;;;;5139727;27;20224;-71
2022/01/16 10:30:07;;;;;;;33.38;16.55;;;;;;;;;;5152442;27;20223;-71
2022/01/16 10:32:37;;;;;;;38.03;17.85;;;;;;;;;;5152061;27;20229;-71
2022/01/16 10:35:09;;;;;;;39.22;18.73;;;;;;;;;;5132973;27;20232;-72
2022/01/16 10:37:37;;;;;;;31.65;17.40;;;;;;;;;;5139528;27;20307;-71
2022/01/16 10:40:07;;;;;;;41.15;19.08;;;;;;;;;;5142062;27;20212;-71
2022/01/16 10:42:35;;;;;;;37.42;19.67;;;;;;;;;;5139719;27;20208;-71
2022/01/16 10:45:06;;;;;;;43.10;19.90;;;;;;;;;;5139678;27;20216;-71
2022/01/16 10:47:36;;;;;;;38.30;17.48;;;;;;;;;;5139201;27;20228;-70
2022/01/16 10:50:08;;;;;;;41.05;20.42;;;;;;;;;;5139142;27;20794;-73
2022/01/16 10:52:47;;;;;;;38.42;18.55;;;;;;;;;;5139450;27;20231;-71
2022/01/16 10:55:15;;;;;;;38.17;18.58;;;;;;;;;;5139609;27;20196;-71
2022/01/16 10:57:43;;;;;;;34.90;18.20;;;;;;;;;;5145242;27;20674;-70
2022/01/16 11:00:15;;;;;;;31.60;16.90;;;;;;;;;;5159892;27;20217;-72
2022/01/16 11:02:44;;;;;;;34.15;17.73;;;;;;;;;;5159943;27;20666;-70
2022/01/16 11:05:14;;;;;;;37.53;17.48;;;;;;;;;;5142403;27;20277;-71
2022/01/16 11:07:42;;;;;;;35.83;17.42;;;;;;;;;;5144308;27;20220;-71
2022/01/16 11:10:21;;;;;;;36.00;19.52;;;;;;;;;;5146369;27;20218;-71
2022/01/16 11:12:49;;;;;;;37.38;20.48;;;;;;;;;;5143172;27;20204;-71
2022/01/16 11:15:19;;;;;;;38.35;19.02;;;;;;;;;;5143151;27;20203;-71
2022/01/16 11:17:47;;;;;;;36.53;17.30;;;;;;;;;;5147702;27;20216;-71
2022/01/16 11:20:15;;;;;;;41.33;20.25;;;;;;;;;;5142533;27;20200;-70
2022/01/16 11:25:41;;;;;;;31.52;17.60;;;;;;;;;;5075338;28;20229;-71
2022/01/16 11:28:13;;;;;;;36.83;17.35;;;;;;;;;;5126139;27;20211;-71
2022/01/16 11:30:44;;;;;;;33.70;20.05;;;;;;;;;;5138669;27;20211;-69
2022/01/16 11:33:13;;;;;;;43.03;19.90;;;;;;;;;;5138685;27;20208;-70
2022/01/16 11:35:48;;;;;;;39.87;19.43;;;;;;;;;;5138233;27;21086;-69
2022/01/16 11:38:17;;;;;;;47.88;21.17;;;;;;;;;;5139057;27;20513;-66
2022/01/16 11:40:46;;;;;;;43.20;22.37;;;;;;;;;;5146296;27;20563;-71
2022/01/16 11:43:25;;;;;;;40.65;20.70;;;;;;;;;;5146956;27;20442;-70
2022/01/16 11:46:04;;;;;;;38.83;19.20;;;;;;;;;;5150347;27;20296;-70
2022/01/16 11:48:36;;;;;;;50.83;22.13;;;;;;;;;;5138429;27;20238;-70
2022/01/16 11:54:31;;;;;;;40.90;19.23;;;;;;;;;;5123167;27;20546;-69
2022/01/16 11:57:14;;;;;;;40.05;20.25;;;;;;;;;;5145671;27;20227;-69
2022/01/16 11:59:42;;;;;;;38.85;20.10;;;;;;;;;;5144742;27;20196;-70
2022/01/16 12:02:19;;;;;;;43.33;20.20;;;;;;;;;;5145289;27;20650;-68
2022/01/16 12:05:04;;;;;;;49.10;22.55;;;;;;;;;;5141803;27;21063;-69
2022/01/16 12:07:56;;;;;;;37.58;20.05;;;;;;;;;;5143853;27;20280;-69
2022/01/16 12:10:43;;;;;;;41.30;20.73;;;;;;;;;;5143804;27;20255;-69
2022/01/16 12:13:30;;;;;;;45.20;21.73;;;;;;;;;;5144801;27;20449;-67
2022/01/16 12:16:13;;;;;;;51.57;23.77;;;;;;;;;;5145446;27;20212;-67
2022/01/16 12:18:42;;;;;;;48.40;21.77;;;;;;;;;;5143460;27;20536;-67
2022/01/16 12:21:25;;;;;;;45.37;21.37;;;;;;;;;;5145146;27;20439;-68
2022/01/16 12:23:53;;;;;;;44.13;21.40;;;;;;;;;;5142776;27;20442;-68
2022/01/16 12:26:33;;;;;;;47.40;21.43;;;;;;;;;;5147604;27;20219;-68
2022/01/16 12:29:01;;;;;;;53.30;22.57;;;;;;;;;;5151788;27;20429;-68
2022/01/16 12:31:34;;;;;;;58.07;24.07;;;;;;;;;;5149461;27;20444;-68
2022/01/16 12:34:05;;;;;;;51.10;23.90;;;;;;;;;;5140457;27;20831;-67
2022/01/16 12:36:34;;;;;;;50.73;23.93;;;;;;;;;;5140042;27;20458;-67
2022/01/16 12:39:05;;;;;;;47.53;22.93;;;;;;;;;;5140453;27;20446;-68
2022/01/16 12:41:40;;;;;;;45.77;23.20;;;;;;;;;;5141492;27;20917;-67
2022/01/16 12:44:09;;;;;;;41.90;22.03;;;;;;;;;;5141947;27;20470;-68
2022/01/16 12:46:39;;;;;;;51.03;26.43;;;;;;;;;;5130658;27;20556;-67
2022/01/16 12:49:09;;;;;;;54.67;23.40;;;;;;;;;;5130073;27;20584;-68
2022/01/16 12:51:38;;;;;;;49.80;20.93;;;;;;;;;;5133948;27;20501;-68
2022/01/16 12:54:08;;;;;;;54.37;23.93;;;;;;;;;;5131360;27;20445;-69
2022/01/16 12:56:37;;;;;;;47.43;23.23;;;;;;;;;;5140916;27;20453;-69
2022/01/16 12:59:11;;;;;;;51.00;22.80;;;;;;;;;;5141877;27;20501;-69
2022/01/16 13:01:44;;;;;;;34.33;20.40;;;;;;;;;;5141768;27;20470;-74
2022/01/16 13:04:20;;;;;;;52.17;23.90;;;;;;;;;;5146771;27;20445;-72
2022/01/16 13:06:49;;;;;;;44.50;22.87;;;;;;;;;;5141609;27;20521;-72
2022/01/16 13:09:17;;;;;;;43.23;22.33;;;;;;;;;;5141692;27;20441;-72
2022/01/16 13:11:46;;;;;;;49.50;22.57;;;;;;;;;;5141115;27;20941;-72
2022/01/16 13:14:15;;;;;;;38.83;21.17;;;;;;;;;;5141429;27;20445;-72
2022/01/16 13:16:44;;;;;;;53.87;23.00;;;;;;;;;;5141449;27;20461;-72
2022/01/16 13:19:15;;;;;;;49.53;23.73;;;;;;;;;;5140966;27;20444;-72
2022/01/16 13:22:01;;;;;;;44.83;24.13;;;;;;;;;;5141776;27;20437;-72
2022/01/16 13:24:31;;;;;;;51.00;24.40;;;;;;;;;;5141158;27;20464;-72
2022/01/16 13:26:59;;;;;;;50.13;23.27;;;;;;;;;;5141118;27;20492;-72
2022/01/16 13:29:29;;;;;;;48.23;22.63;;;;;;;;;;5141232;27;20487;-72
2022/01/16 13:31:57;;;;;;;48.17;23.53;;;;;;;;;;5140983;27;20450;-72
2022/01/16 13:34:36;;;;;;;40.90;23.20;;;;;;;;;;5141042;27;20528;-72
2022/01/16 13:37:06;;;;;;;38.07;21.27;;;;;;;;;;5141094;27;20474;-73
2022/01/16 13:39:36;;;;;;;47.67;25.90;;;;;;;;;;5140297;27;20446;-72
2022/01/16 13:42:50;;;;;;;42.10;23.40;;;;;;;;;;5140857;27;20434;-73
2022/01/16 13:45:26;;;;;;;47.93;22.87;;;;;;;;;;5141052;27;20509;-72
2022/01/16 13:47:56;;;;;;;42.23;21.60;;;;;;;;;;5140503;27;20528;-72
2022/01/16 13:50:24;;;;;;;41.67;22.17;;;;;;;;;;5140259;27;20979;-72
2022/01/16 13:52:55;;;;;;;38.17;21.73;;;;;;;;;;5140837;27;20510;-72
2022/01/16 13:55:23;;;;;;;46.70;21.33;;;;;;;;;;5140874;27;20450;-72
2022/01/16 13:57:52;;;;;;;41.00;21.83;;;;;;;;;;5140161;27;20529;-73
2022/01/16 14:00:21;;;;;;;44.00;24.13;;;;;;;;;;5140739;27;20452;-73
2022/01/16 14:02:49;;;;;;;45.03;22.10;;;;;;;;;;5139783;27;20464;-72
2022/01/16 14:05:26;;;;;;;42.40;22.17;;;;;;;;;;5140342;27;20464;-72
2022/01/16 14:08:13;;;;;;;40.83;22.43;;;;;;;;;;5139942;27;20548;-72
2022/01/16 14:10:41;;;;;;;44.67;23.80;;;;;;;;;;5140394;27;20452;-72
2022/01/16 14:13:10;;;;;;;45.07;21.93;;;;;;;;;;5140447;27;20481;-72
2022/01/16 14:15:38;;;;;;;44.80;21.03;;;;;;;;;;5140544;27;20464;-72
2022/01/16 14:18:14;;;;;;;39.50;20.97;;;;;;;;;;5139945;27;20979;-73
2022/01/16 14:21:58;;;;;;;35.27;21.27;;;;;;;;;;5140229;27;20533;-73
2022/01/16 14:23:42;;;;;;;48.50;22.67;;;;;;;;;;5140239;27;20438;-73
2022/01/16 14:26:10;;;;;;;51.30;21.87;;;;;;;;;;5150873;27;20844;-73
2022/01/16 14:28:38;;;;;;;40.83;22.27;;;;;;;;;;5158462;27;20528;-73
2022/01/16 14:31:07;;;;;;;46.37;23.43;;;;;;;;;;5140908;27;20442;-73
2022/01/16 14:33:47;;;;;;;44.03;21.73;;;;;;;;;;5139571;27;20438;-73
2022/01/16 14:36:35;;;;;;;47.67;23.73;;;;;;;;;;5130809;27;20465;-72
2022/01/16 14:39:31;;;;;;;38.77;21.50;;;;;;;;;;5091558;27;20504;-73
2022/01/16 14:42:31;;;;;;;48.17;23.07;;;;;;;;;;5160575;27;20939;-73
2022/01/16 14:44:59;;;;;;;34.53;19.50;;;;;;;;;;5160253;27;20931;-74
2022/01/16 14:47:27;;;;;;;43.53;22.10;;;;;;;;;;5160235;27;20480;-73
2022/01/16 14:49:55;;;;;;;44.03;20.97;;;;;;;;;;5159273;27;20551;-73
2022/01/16 14:52:23;;;;;;;40.97;21.33;;;;;;;;;;5160439;27;20532;-73
2022/01/16 14:54:54;;;;;;;44.30;21.37;;;;;;;;;;5159632;27;20524;-73
2022/01/16 14:57:22;;;;;;;41.47;22.27;;;;;;;;;;5151837;27;20453;-73
2022/01/16 14:59:57;;;;;;;48.80;21.77;;;;;;;;;;5159815;27;20440;-73
2022/01/16 15:02:27;;;;;;;41.77;21.57;;;;;;;;;;5159959;27;20449;-73
2022/01/16 15:04:56;;;;;;;42.87;23.50;;;;;;;;;;5145153;27;20446;-73
2022/01/16 15:07:23;;;;;;;41.87;22.10;;;;;;;;;;5138832;27;20513;-73
2022/01/16 15:09:53;;;;;;;43.27;22.67;;;;;;;;;;5138743;27;20446;-73
2022/01/16 15:12:22;;;;;;;42.23;21.97;;;;;;;;;;5139048;27;20446;-73
2022/01/16 15:14:50;;;;;;;43.13;22.20;;;;;;;;;;5138735;27;20434;-73